createdAt,value
2022-11-03T00:01:34.789Z,101459.97
2022-11-03T00:04:01.296Z,101459.53
2022-11-03T00:06:27.797Z,101457.94
2022-11-03T00:08:58.246Z,101460.66
2022-11-03T00:11:24.680Z,101463.03
2022-11-03T00:13:51.136Z,101443.69
2022-11-03T00:16:17.630Z,101444.47
2022-11-03T00:18:44.143Z,101437.09
2022-11-03T00:21:13.281Z,101423.88
2022-11-03T00:23:42.605Z,101426.72
2022-11-03T00:26:18.192Z,101416.97
2022-11-03T00:28:46.776Z,101409.63
2022-11-03T00:31:15.499Z,101412.78
2022-11-03T00:33:43.737Z,101419.00
2022-11-03T00:36:13.403Z,101396.13
2022-11-03T00:38:40.219Z,101389.22
2022-11-03T00:41:07.004Z,101392.38
2022-11-03T00:43:35.192Z,101383.44
2022-11-03T00:46:01.843Z,101373.06
2022-11-03T00:48:31.255Z,101378.13
2022-11-03T00:51:06.842Z,101378.94
2022-11-03T00:53:35.587Z,101372.34
2022-11-03T00:56:02.514Z,101370.78
2022-11-03T00:58:28.949Z,101373.97
2022-11-03T01:00:59.741Z,101370.91
2022-11-03T01:03:26.576Z,101354.59
2022-11-03T01:06:11.532Z,101370.56
2022-11-03T01:08:38.172Z,101364.69
2022-11-03T01:11:31.790Z,101364.03
2022-11-03T01:13:58.479Z,101360.16
2022-11-03T01:16:25.181Z,101368.31
2022-11-03T01:18:51.994Z,101358.25
2022-11-03T01:21:19.165Z,101349.28
2022-11-03T01:23:45.591Z,101347.72
2022-11-03T01:26:13.481Z,101351.66
2022-11-03T01:28:43.960Z,101338.88
2022-11-03T01:31:14.916Z,101336.16
2022-11-03T01:33:41.566Z,101331.50
2022-11-03T01:36:09.745Z,101333.44
2022-11-03T01:38:37.077Z,101326.84
2022-11-03T01:41:05.583Z,101324.50
2022-11-03T01:43:32.469Z,101324.13
2022-11-03T01:46:23.401Z,101319.84
2022-11-03T01:49:22.262Z,101315.19
2022-11-03T01:51:54.724Z,101297.66
2022-11-03T01:54:26.250Z,101302.28
2022-11-03T01:56:53.291Z,101300.03
2022-11-03T01:59:22.455Z,101294.25
2022-11-03T02:01:49.148Z,101289.50
2022-11-03T02:04:33.296Z,101288.72
2022-11-03T02:07:11.519Z,101282.91
2022-11-03T02:09:37.980Z,101280.56
2022-11-03T02:12:08.373Z,101287.22
2022-11-03T02:14:43.137Z,101284.94
2022-11-03T02:17:12.548Z,101285.28
2022-11-03T02:19:47.476Z,101285.28
2022-11-03T02:22:32.669Z,101271.00
2022-11-03T02:25:17.756Z,101272.50
2022-11-03T02:27:44.733Z,101273.28
2022-11-03T02:30:11.714Z,101263.63
2022-11-03T02:33:04.349Z,101266.03
2022-11-03T02:35:42.634Z,101271.13
2022-11-03T02:38:15.068Z,101264.91
2022-11-03T02:40:51.828Z,101259.13
2022-11-03T02:43:19.694Z,101259.47
2022-11-03T02:45:48.205Z,101252.88
2022-11-03T02:48:17.831Z,101244.72
2022-11-03T02:50:45.052Z,101236.22
2022-11-03T02:53:12.828Z,101225.69
2022-11-03T02:55:55.756Z,101232.38
2022-11-03T02:58:39.451Z,101220.72
2022-11-03T03:01:15.221Z,101213.69
2022-11-03T03:03:52.329Z,101223.44
2022-11-03T03:06:25.231Z,101221.50
2022-11-03T03:09:06.882Z,101218.88
2022-11-03T03:11:39.628Z,101205.63
2022-11-03T03:14:09.186Z,101200.31
2022-11-03T03:16:51.160Z,101196.09
2022-11-03T03:19:47.904Z,101189.16
2022-11-03T03:22:41.527Z,101182.59
2022-11-03T03:25:20.884Z,101185.78
2022-11-03T03:27:51.889Z,101177.69
2022-11-03T03:30:18.811Z,101180.06
2022-11-03T03:32:49.213Z,101175.41
2022-11-03T03:35:26.657Z,101169.31
2022-11-03T03:37:59.200Z,101159.22
2022-11-03T03:40:36.027Z,101162.38
2022-11-03T03:43:06.543Z,101176.41
2022-11-03T03:45:34.547Z,101160.88
2022-11-03T03:48:01.358Z,101157.91
2022-11-03T03:50:31.679Z,101148.63
2022-11-03T03:53:00.414Z,101141.25
2022-11-03T03:55:35.561Z,101160.28
2022-11-03T03:58:04.132Z,101161.78
2022-11-03T04:00:30.894Z,101152.13
2022-11-03T04:02:59.776Z,101154.84
2022-11-03T04:05:26.881Z,101137.72
2022-11-03T04:07:53.299Z,101129.94
2022-11-03T04:10:22.237Z,101146.59
2022-11-03T04:13:08.137Z,101148.06
2022-11-03T04:16:03.610Z,101141.84
2022-11-03T04:18:48.302Z,101148.41
2022-11-03T04:21:32.980Z,101129.38
2022-11-03T04:24:00.450Z,101127.00
2022-11-03T04:26:28.581Z,101129.75
2022-11-03T04:28:55.883Z,101130.88
2022-11-03T04:31:22.554Z,101118.41
2022-11-03T04:33:49.291Z,101118.41
2022-11-03T04:36:21.310Z,101114.91
2022-11-03T04:38:48.764Z,101122.28
2022-11-03T04:41:28.870Z,101109.78
2022-11-03T04:43:56.923Z,101114.81
2022-11-03T04:46:28.738Z,101111.28
2022-11-03T04:48:59.103Z,101100.78
2022-11-03T04:51:29.874Z,101088.75
2022-11-03T04:54:04.336Z,101092.25
2022-11-03T04:56:30.847Z,101092.63
2022-11-03T04:58:58.043Z,101094.09
2022-11-03T05:01:25.158Z,101087.53
2022-11-03T05:03:54.974Z,101080.03
2022-11-03T05:06:23.733Z,101083.91
2022-11-03T05:08:55.015Z,101078.81
2022-11-03T05:11:32.316Z,101074.19
2022-11-03T05:14:23.311Z,101072.59
2022-11-03T05:16:51.680Z,101076.91
2022-11-03T05:19:27.151Z,101072.25
2022-11-03T05:21:55.564Z,101066.03
2022-11-03T05:24:25.757Z,101059.78
2022-11-03T05:26:55.665Z,101054.72
2022-11-03T05:29:26.546Z,101047.00
2022-11-03T05:31:55.931Z,101038.03
2022-11-03T05:34:42.428Z,101035.75
2022-11-03T05:37:08.815Z,101028.84
2022-11-03T05:39:37.927Z,101028.38
2022-11-03T05:42:23.414Z,101026.13
2022-11-03T05:44:51.666Z,101025.34
2022-11-03T05:47:24.240Z,101022.28
2022-11-03T05:49:54.681Z,101011.81
2022-11-03T05:52:24.184Z,101021.19
2022-11-03T05:54:52.230Z,101003.75
2022-11-03T05:57:19.456Z,101014.63
2022-11-03T05:59:49.483Z,101010.78
2022-11-03T06:02:36.120Z,101008.50
2022-11-03T06:05:11.440Z,101016.28
2022-11-03T06:07:38.190Z,101009.34
2022-11-03T06:10:26.003Z,101009.34
2022-11-03T06:13:21.615Z,101006.28
2022-11-03T06:15:53.235Z,100995.41
2022-11-03T06:18:22.817Z,100993.47
2022-11-03T06:20:52.753Z,100991.56
2022-11-03T06:23:20.806Z,100995.50
2022-11-03T06:25:48.849Z,100989.63
2022-11-03T06:28:19.900Z,100988.84
2022-11-03T06:30:47.598Z,100978.41
2022-11-03T06:33:35.078Z,100971.03
2022-11-03T06:36:18.303Z,100981.97
2022-11-03T06:38:52.708Z,100970.75
2022-11-03T06:41:27.899Z,100959.44
2022-11-03T06:43:54.594Z,100963.28
2022-11-03T06:46:26.065Z,100964.09
2022-11-03T06:48:55.766Z,100962.50
2022-11-03T06:51:25.923Z,100961.72
2022-11-03T06:53:53.966Z,100960.16
2022-11-03T06:56:23.128Z,100964.00
2022-11-03T06:58:52.984Z,100960.84
2022-11-03T07:01:39.731Z,100958.22
2022-11-03T07:04:16.337Z,100953.91
2022-11-03T07:06:43.476Z,100960.50
2022-11-03T07:09:21.320Z,100953.13
2022-11-03T07:11:50.009Z,100962.06
2022-11-03T07:14:22.793Z,100959.00
2022-11-03T07:16:56.067Z,100959.44
2022-11-03T07:19:30.765Z,100968.38
2022-11-03T07:22:09.448Z,100958.75
2022-11-03T07:24:45.753Z,100970.06
2022-11-03T07:27:20.835Z,100957.66
2022-11-03T07:29:49.590Z,100952.66
2022-11-03T07:32:19.979Z,100954.69
2022-11-03T07:34:47.848Z,100946.94
2022-11-03T07:37:19.741Z,100946.22
2022-11-03T07:39:46.962Z,100944.28
2022-11-03T07:42:25.741Z,100954.81
2022-11-03T07:44:53.152Z,100944.38
2022-11-03T07:47:21.999Z,100940.88
2022-11-03T07:49:48.798Z,100937.44
2022-11-03T07:52:19.914Z,100942.53
2022-11-03T07:54:46.698Z,100930.06
2022-11-03T07:57:19.441Z,100939.06
2022-11-03T07:59:49.335Z,100936.03
2022-11-03T08:02:37.170Z,100931.78
2022-11-03T08:05:04.496Z,100934.94
2022-11-03T08:07:31.660Z,100938.09
2022-11-03T08:09:58.681Z,100928.44
2022-11-03T08:12:25.343Z,100931.59
2022-11-03T08:14:51.771Z,100930.44
2022-11-03T08:17:18.200Z,100927.72
2022-11-03T08:19:44.607Z,100919.28
2022-11-03T08:22:11.050Z,100912.22
2022-11-03T08:24:37.475Z,100920.50
2022-11-03T08:27:05.040Z,100910.81
2022-11-03T08:29:31.675Z,100909.75
2022-11-03T08:31:58.207Z,100902.06
2022-11-03T08:34:24.627Z,100893.19
2022-11-03T08:36:51.072Z,100878.44
2022-11-03T08:39:17.957Z,100868.75
2022-11-03T08:41:44.522Z,100861.34
2022-11-03T08:44:10.954Z,100864.88
2022-11-03T08:46:37.604Z,100856.78
2022-11-03T08:49:04.043Z,100852.91
2022-11-03T08:51:30.490Z,100847.47
2022-11-03T08:53:56.931Z,100825.69
2022-11-03T08:56:23.487Z,100834.25
2022-11-03T08:58:50.350Z,100831.19
2022-11-03T09:01:16.818Z,100818.75
2022-11-03T09:03:43.531Z,100820.06
2022-11-03T09:06:10.335Z,100819.69
2022-11-03T09:11:23.462Z,100799.56
2022-11-03T09:13:49.923Z,100784.03
2022-11-03T09:16:17.156Z,100781.31
2022-11-03T09:18:43.883Z,100774.00
2022-11-03T09:21:10.341Z,100765.84
2022-11-03T09:23:36.829Z,100756.97
2022-11-03T09:26:03.258Z,100750.44
2022-11-03T09:28:29.693Z,100739.22
2022-11-03T09:30:56.101Z,100733.44
2022-11-03T09:33:22.569Z,100729.97
2022-11-03T09:35:49.032Z,100721.88
2022-11-03T09:38:15.477Z,100723.06
2022-11-03T09:40:41.920Z,100714.94
2022-11-03T09:43:09.034Z,100705.28
2022-11-03T09:45:35.740Z,100708.06
2022-11-03T09:48:02.375Z,100694.88
2022-11-03T09:50:28.941Z,100693.38
2022-11-03T09:52:56.622Z,100686.03
2022-11-03T09:55:27.354Z,100681.03
2022-11-03T09:58:02.332Z,100677.53
2022-11-03T10:00:28.831Z,100682.25
2022-11-03T10:02:55.741Z,100675.22
2022-11-03T10:05:28.344Z,100673.28
2022-11-03T10:08:00.685Z,100658.47
2022-11-03T10:10:27.764Z,100658.47
2022-11-03T10:12:55.185Z,100660.88
2022-11-03T10:15:24.586Z,100645.63
2022-11-03T10:17:51.782Z,100644.50
2022-11-03T10:20:21.068Z,100635.09
2022-11-03T10:22:52.606Z,100631.97
2022-11-03T10:25:44.912Z,100639.78
2022-11-03T10:28:23.091Z,100629.66
2022-11-03T10:31:11.380Z,100629.66
2022-11-03T10:33:53.586Z,100629.66
2022-11-03T10:36:20.205Z,100623.38
2022-11-03T10:38:47.947Z,100616.38
2022-11-03T10:41:18.124Z,100616.44
2022-11-03T10:43:59.073Z,100608.25
2022-11-03T10:49:18.327Z,100580.59
2022-11-03T10:51:48.706Z,100574.41
2022-11-03T10:54:17.549Z,100566.22
2022-11-03T10:56:45.761Z,100571.75
2022-11-03T10:59:24.543Z,100554.59
2022-11-03T11:01:51.449Z,100558.94
2022-11-03T11:04:20.186Z,100547.66
2022-11-03T11:06:47.600Z,100545.72
2022-11-03T11:09:23.489Z,100551.19
2022-11-03T11:12:16.130Z,100565.66
2022-11-03T11:14:59.893Z,100553.59
2022-11-03T11:17:47.183Z,100549.31
2022-11-03T11:20:29.016Z,100550.13
2022-11-03T11:22:55.431Z,100541.94
2022-11-03T11:26:00.334Z,100542.44
2022-11-03T11:28:27.000Z,100540.91
2022-11-03T11:30:53.423Z,100537.84
2022-11-03T11:33:24.816Z,100520.72
2022-11-03T11:35:54.031Z,100522.34
2022-11-03T11:38:49.598Z,100521.63
2022-11-03T11:41:16.041Z,100516.16
2022-11-03T11:43:42.556Z,100513.41
2022-11-03T11:46:38.397Z,100491.97
2022-11-03T11:49:04.784Z,100488.88
2022-11-03T11:51:34.435Z,100488.88
2022-11-03T11:54:17.513Z,100472.50
2022-11-03T11:56:47.289Z,100462.41
2022-11-03T11:59:25.380Z,100454.59
2022-11-03T12:01:55.581Z,100454.22
2022-11-03T12:04:26.646Z,100444.47
2022-11-03T12:06:53.479Z,100451.88
2022-11-03T12:09:22.376Z,100428.88
2022-11-03T12:11:56.425Z,100418.31
2022-11-03T12:14:43.504Z,100409.75
2022-11-03T12:17:18.903Z,100400.34
2022-11-03T12:19:52.853Z,100399.16
2022-11-03T12:22:25.954Z,100386.31
2022-11-03T12:24:53.024Z,100370.31
2022-11-03T12:27:25.246Z,100375.03
2022-11-03T12:30:00.020Z,100378.16
2022-11-03T12:32:33.803Z,100376.19
2022-11-03T12:35:01.008Z,100369.19
2022-11-03T12:37:27.485Z,100371.56
2022-11-03T12:39:53.944Z,100367.69
2022-11-03T12:42:21.047Z,100360.63
2022-11-03T12:44:47.578Z,100369.22
2022-11-03T12:47:14.003Z,100360.63
2022-11-03T12:49:40.490Z,100358.31
2022-11-03T12:52:08.594Z,100348.91
2022-11-03T12:54:35.445Z,100345.78
2022-11-03T12:57:02.062Z,100339.53
2022-11-03T12:59:29.323Z,100331.72
2022-11-03T13:01:55.916Z,100323.13
2022-11-03T13:04:22.491Z,100315.69
2022-11-03T13:06:48.967Z,100309.84
2022-11-03T13:09:15.376Z,100300.88
2022-11-03T13:12:00.386Z,100298.13
2022-11-03T13:14:26.897Z,100293.44
2022-11-03T13:16:53.535Z,100295.78
2022-11-03T13:19:20.399Z,100286.41
2022-11-03T13:21:46.844Z,100275.84
2022-11-03T13:24:13.338Z,100279.00
2022-11-03T13:26:39.735Z,100274.28
2022-11-03T13:29:06.175Z,100267.66
2022-11-03T13:31:32.699Z,100262.97
2022-11-03T13:33:59.147Z,100255.16
2022-11-03T13:36:25.683Z,100245.81
2022-11-03T13:38:52.492Z,100232.94
2022-11-03T13:41:18.909Z,100212.25
2022-11-03T13:43:45.379Z,100223.56
2022-11-03T13:46:12.907Z,100222.75
2022-11-03T13:51:26.047Z,100212.63
2022-11-03T13:59:25.865Z,100213.81
2022-11-03T14:07:11.434Z,100182.59
2022-11-03T14:09:38.041Z,100190.41
2022-11-03T14:12:23.266Z,100182.97
2022-11-03T14:14:49.695Z,100178.28
2022-11-03T14:17:16.141Z,100173.22
2022-11-03T14:19:47.257Z,100174.00
2022-11-03T14:22:15.257Z,100175.59
2022-11-03T14:24:41.820Z,100158.41
2022-11-03T14:27:08.753Z,100161.50
2022-11-03T14:29:35.305Z,100154.13
2022-11-03T14:32:01.711Z,100144.75
2022-11-03T14:34:28.281Z,100142.78
2022-11-03T14:36:54.843Z,100147.09
2022-11-03T14:39:21.343Z,100145.16
2022-11-03T14:42:06.407Z,100148.66
2022-11-03T14:44:38.756Z,100156.06
2022-11-03T14:47:07.715Z,100152.19
2022-11-03T14:49:35.271Z,100157.25
2022-11-03T14:52:03.358Z,100152.56
2022-11-03T14:54:31.003Z,100147.09
2022-11-03T14:56:58.031Z,100136.19
2022-11-03T14:59:24.972Z,100133.06
2022-11-03T15:01:52.611Z,100143.59
2022-11-03T15:04:19.477Z,100135.00
2022-11-03T15:06:46.518Z,100133.44
2022-11-03T15:09:14.768Z,100134.63
2022-11-03T15:11:42.682Z,100124.88
2022-11-03T15:14:10.049Z,100126.03
2022-11-03T15:16:36.943Z,100113.97
2022-11-03T15:19:04.763Z,100103.06
2022-11-03T15:21:31.877Z,100112.78
2022-11-03T15:26:45.096Z,100105.34
2022-11-03T15:29:11.605Z,100109.63
2022-11-03T15:31:39.247Z,100096.78
2022-11-03T15:34:08.702Z,100093.63
2022-11-03T15:36:35.490Z,100090.91
2022-11-03T15:39:02.015Z,100088.19
2022-11-03T15:41:28.493Z,100076.09
2022-11-03T15:43:54.927Z,100073.75
2022-11-03T15:46:21.376Z,100048.44
2022-11-03T15:48:49.203Z,100055.84
2022-11-03T15:51:16.035Z,100048.81
2022-11-03T15:53:43.770Z,100044.13
2022-11-03T15:56:10.296Z,100042.59
2022-11-03T15:58:37.597Z,100043.34
2022-11-03T16:01:05.012Z,100037.09
2022-11-03T16:03:32.181Z,100025.78
2022-11-03T16:05:59.184Z,100028.91
2022-11-03T16:08:25.764Z,100026.56
2022-11-03T16:10:57.635Z,100016.44
2022-11-03T16:13:24.988Z,100015.69
2022-11-03T16:15:51.787Z,100008.66
2022-11-03T16:18:18.522Z,100005.16
2022-11-03T16:20:45.060Z,100005.91
2022-11-03T16:23:11.487Z,100010.59
2022-11-03T16:25:38.007Z,99998.94
2022-11-03T16:28:04.785Z,100005.56
2022-11-03T16:30:31.756Z,99997.34
2022-11-03T16:32:58.186Z,99995.78
2022-11-03T16:35:24.784Z,100002.81
2022-11-03T16:37:51.258Z,100011.75
2022-11-03T16:40:19.994Z,100007.47
2022-11-03T16:42:47.234Z,100009.00
2022-11-03T16:45:22.314Z,100002.78
2022-11-03T16:47:50.544Z,100002.41
2022-11-03T16:50:18.527Z,100003.16
2022-11-03T16:52:49.327Z,99996.53
2022-11-03T16:55:17.738Z,99996.13
2022-11-03T16:57:44.824Z,99991.47
2022-11-03T17:00:16.997Z,99995.34
2022-11-03T17:02:44.253Z,99986.00
2022-11-03T17:05:11.618Z,99994.13
2022-11-03T17:07:38.206Z,99993.75
2022-11-03T17:10:06.176Z,99993.72
2022-11-03T17:12:32.644Z,99984.78
2022-11-03T17:14:59.144Z,99983.19
2022-11-03T17:17:25.603Z,99986.22
2022-11-03T17:19:52.049Z,99981.56
2022-11-03T17:22:20.185Z,99973.38
2022-11-03T17:24:46.669Z,99988.13
2022-11-03T17:27:18.913Z,99979.56
2022-11-03T17:29:51.672Z,99973.34
2022-11-03T17:32:25.245Z,99967.13
2022-11-03T17:34:57.156Z,99970.63
2022-11-03T17:37:24.977Z,99970.22
2022-11-03T17:39:52.304Z,99975.25
2022-11-03T17:42:21.585Z,99970.59
2022-11-03T17:44:50.244Z,99964.31
2022-11-03T17:47:18.223Z,99950.69
2022-11-03T17:49:45.621Z,99947.19
2022-11-03T17:52:28.816Z,99946.00
2022-11-03T17:54:59.893Z,99946.41
2022-11-03T17:57:26.907Z,99942.50
2022-11-03T17:59:55.797Z,99948.31
2022-11-03T18:02:24.874Z,99947.50
2022-11-03T18:04:57.621Z,99942.03
2022-11-03T18:07:28.873Z,99936.19
2022-11-03T18:09:58.361Z,99931.09
2022-11-03T18:12:47.604Z,99931.16
2022-11-03T18:15:19.045Z,99921.00
2022-11-03T18:17:45.886Z,99922.56
2022-11-03T18:20:22.001Z,99921.38
2022-11-03T18:22:49.892Z,99931.50
2022-11-03T18:25:18.988Z,99928.00
2022-11-03T18:27:45.789Z,99930.72
2022-11-03T18:30:16.936Z,99933.44
2022-11-03T18:32:48.920Z,99938.50
2022-11-03T18:35:22.656Z,99931.09
2022-11-03T18:37:49.984Z,99923.72
2022-11-03T18:40:16.694Z,99921.38
2022-11-03T18:42:43.184Z,99925.28
2022-11-03T18:45:15.475Z,99917.50
2022-11-03T18:47:42.561Z,99915.53
2022-11-03T18:50:14.316Z,99907.41
2022-11-03T18:52:43.566Z,99913.59
2022-11-03T18:55:14.386Z,99906.56
2022-11-03T18:57:41.112Z,99915.13
2022-11-03T19:00:17.402Z,99912.78
2022-11-03T19:02:43.848Z,99918.59
2022-11-03T19:05:14.063Z,99914.72
2022-11-03T19:07:42.376Z,99905.00
2022-11-03T19:10:13.002Z,99903.41
2022-11-03T19:12:43.638Z,99896.41
2022-11-03T19:15:18.480Z,99900.31
2022-11-03T19:17:47.408Z,99894.84
2022-11-03T19:20:15.356Z,99883.94
2022-11-03T19:22:42.131Z,99878.88
2022-11-03T19:25:08.972Z,99874.63
2022-11-03T19:27:38.320Z,99867.59
2022-11-03T19:30:05.945Z,99868.78
2022-11-03T19:32:36.778Z,99867.97
2022-11-03T19:35:16.940Z,99868.72
2022-11-03T19:37:43.739Z,99866.78
2022-11-03T19:40:16.861Z,99849.72
2022-11-03T19:42:43.359Z,99852.03
2022-11-03T19:45:18.784Z,99848.13
2022-11-03T19:48:22.579Z,99849.66
2022-11-03T19:50:37.871Z,99863.25
2022-11-03T19:53:07.208Z,99855.06
2022-11-03T19:55:40.339Z,99860.84
2022-11-03T19:58:29.029Z,99854.97
2022-11-03T20:00:56.474Z,99846.44
2022-11-03T20:03:24.359Z,99842.56
2022-11-03T20:05:56.482Z,99837.50
2022-11-03T20:08:29.120Z,99847.22
2022-11-03T20:10:56.173Z,99843.72
2022-11-03T20:13:25.474Z,99853.03
2022-11-03T20:15:58.968Z,99858.84
2022-11-03T20:18:27.002Z,99859.63
2022-11-03T20:20:53.549Z,99860.75
2022-11-03T20:23:25.632Z,99866.94
2022-11-03T20:25:52.713Z,99853.75
2022-11-03T20:28:25.121Z,99852.53
2022-11-03T20:30:52.565Z,99848.31
2022-11-03T20:33:20.573Z,99842.84
2022-11-03T20:35:48.574Z,99842.88
2022-11-03T20:38:19.178Z,99852.97
2022-11-03T20:40:47.185Z,99852.19
2022-11-03T20:43:25.742Z,99842.44
2022-11-03T20:45:53.684Z,99833.53
2022-11-03T20:48:20.223Z,99820.72
2022-11-03T20:50:47.067Z,99827.72
2022-11-03T20:53:22.224Z,99822.66
2022-11-03T20:55:48.812Z,99826.97
2022-11-03T20:58:17.258Z,99830.03
2022-11-03T21:00:45.812Z,99832.75
2022-11-03T21:03:37.999Z,99838.94
2022-11-03T21:06:05.533Z,99838.50
2022-11-03T21:08:31.963Z,99850.53
2022-11-03T21:11:18.477Z,99853.97
2022-11-03T21:13:44.913Z,99857.47
2022-11-03T21:16:29.954Z,99854.72
2022-11-03T21:19:14.729Z,99861.66
2022-11-03T21:21:41.264Z,99868.22
2022-11-03T21:24:11.372Z,99878.28
2022-11-03T21:26:40.043Z,99862.34
2022-11-03T21:29:06.682Z,99867.72
2022-11-03T21:31:33.091Z,99890.19
2022-11-03T21:33:59.584Z,99904.53
2022-11-03T21:36:26.047Z,99917.69
2022-11-03T21:38:52.598Z,99950.28
2022-11-03T21:41:37.669Z,99949.84
2022-11-03T21:44:16.230Z,99946.34
2022-11-03T21:46:44.142Z,99951.38
2022-11-03T21:49:29.745Z,99958.75
2022-11-03T21:51:57.521Z,99966.84
2022-11-03T21:54:23.976Z,99976.91
2022-11-03T21:56:50.435Z,99973.38
2022-11-03T21:59:16.896Z,99985.38
2022-11-03T22:01:43.449Z,99990.78
2022-11-03T22:04:09.987Z,99983.78
2022-11-03T22:06:36.459Z,99986.84
2022-11-03T22:09:03.227Z,99972.09
2022-11-03T22:11:29.673Z,99956.59
2022-11-03T22:13:58.624Z,99963.97
2022-11-03T22:16:38.280Z,99962.41
2022-11-03T22:19:27.426Z,99975.13
2022-11-03T22:22:12.800Z,99966.47
2022-11-03T22:24:57.920Z,99975.66
2022-11-03T22:27:25.876Z,99986.75
2022-11-03T22:30:10.891Z,99995.94
2022-11-03T22:32:37.445Z,99995.13
2022-11-03T22:35:24.003Z,99989.69
2022-11-03T22:38:02.339Z,99987.00
2022-11-03T22:40:47.674Z,100002.13
2022-11-03T22:43:32.496Z,99987.78
2022-11-03T22:45:59.003Z,99989.75
2022-11-03T22:48:26.868Z,99996.34
2022-11-03T22:51:13.303Z,100009.97
2022-11-03T22:53:59.006Z,100010.34
2022-11-03T22:56:27.247Z,100029.34
2022-11-03T22:58:54.181Z,100024.31
2022-11-03T23:01:23.408Z,100016.97
2022-11-03T23:03:50.304Z,100026.31
2022-11-03T23:06:19.458Z,100036.78
2022-11-03T23:08:47.422Z,100030.94
2022-11-03T23:11:25.335Z,100042.97
2022-11-03T23:14:00.284Z,100032.50
2022-11-03T23:16:29.333Z,100032.09
2022-11-03T23:19:15.815Z,100029.00
2022-11-03T23:21:45.367Z,100031.31
2022-11-03T23:24:30.871Z,100044.88
2022-11-03T23:26:59.492Z,100046.03
2022-11-03T23:29:26.701Z,100038.59
2022-11-03T23:31:53.941Z,100041.69
2022-11-03T23:34:20.699Z,100037.78
2022-11-03T23:36:47.169Z,100038.06
2022-11-03T23:39:15.368Z,100046.16
2022-11-03T23:41:43.611Z,100047.31
2022-11-03T23:44:11.576Z,100061.25
2022-11-03T23:46:56.607Z,100070.16
2022-11-03T23:49:23.303Z,100065.16
2022-11-03T23:51:49.948Z,100061.69
2022-11-03T23:54:16.499Z,100076.41
2022-11-03T23:57:04.072Z,100084.19
2022-11-03T23:59:32.155Z,100087.34
